메인 페이지
METAR-TAF:

METAR-TAF

공항 :

산투스 두몬트 공항

리우데자네이루, 리우데자네이루, 브라질

위도: 22-54S, 경도: 043-10W, 고도: 3m

현재 날씨관측

예보는 15분 전, 10:00시(UTC)에 발표되었습니다.
4kt
온도 27°C
습도 79%
기압 1011 hPa
시정 10km 이상
1500m 미만 상공 구름 및 적란운 없음

METAR: SBRJ 011000Z 36004KT CAVOK 27/23 Q1011

시각: 08:15 (10:15 UTC)

예보

예보는 9 시간 26분 전, 00:49시(UTC)에 발표되었습니다.
예보 대상 시간: 01일 06시부터 01일 18시까지 (UTC)
북북서7kt
시정 10km 이상
고도 2000ft 상공 구름 조금
전환 중
01일 15시부터 01일 17시까지 (UTC)
남남동10kt

TAF: SBRJ 010049Z 0106/0118 34007KT 9999 FEW020 TN25/0109Z TX31/0117Z BECMG 0115/0117 16010KT RMK PHI

4,000개 이상의 공항 관측 자료 및 예보 (METAR 및 TAF 보고).

지도상에서 검색 가능한 기상관측소가 노란 점과 빨간 점으로 표시되어 있습니다.

기상관측소 명을 보려면 표시 위로 마우스를 이동하세요.

날씨 관측과 예보를 보려면 클릭하세요.

지도 변경 : 확대하려면 엑스 표시가 있는 녹색 버튼, 축소하려면 빼기 표시가 있는 녹색 버튼, 다음 페이지의 지도를 보려면 녹색 화살표를 클릭하세요.


METAR-TAF: